Confluence — AUX658 — position and weather

sailwx.info

Track history (hours):
 
Tides and Currents Weather Stations Pressure Air Temp Water Temp Dewpoint Dewpoint Depression Visibility Wind Speed Wind Dir Waves Ship Positions

Confluence

Last reported at 2017-Sep-21 20:41 UTC. Time now 2017-Nov-24 00:25 UTC.
Position N 40°53' W 073°57'.
Warning: this ship's position is months out of date.

Length 11 m; draft 0.9 m.

Type: Pleasure craft. MMSI: 338134108.

Date/timePositionNaut miles runAvg speedWind from/ knotsBaromVisibWave heightAir tempDewpointWater temp
2017-Sep-21 20:41N 40°53' W 073°57'0 2.6
2017-Sep-21 20:30N 40°52' W 073°57'3 5.5
2017-Sep-21 20:00N 40°50' W 073°58'3 6.7
2017-Sep-21 19:30N 40°47' W 074°00'3 5.8
2017-Sep-21 19:00N 40°44' W 074°01'510.1
2017-Sep-21 18:30N 40°39' W 074°03'2 4.6
2017-Sep-21 17:59N 40°37' W 074°04'816.0
2017-Sep-21 17:30N 40°44' W 074°01'0 0.8
2017-Sep-21 16:59N 40°44' W 074°01'2 4.8
2017-Sep-21 16:30N 40°42' W 073°59'2 4.2
2017-Sep-21 16:00N 40°44' W 073°58'0 0.7
2017-Sep-21 15:30N 40°44' W 073°58'0 0.6
2017-Sep-21 14:59N 40°44' W 073°58'4 7.3
2017-Sep-21 14:30N 40°41' W 074°00'5 9.7
2017-Sep-21 13:58N 40°37' W 074°04'2 5.1
2017-Sep-21 13:30N 40°39' W 074°03'24 2.8
2017-Sep-21 04:49N 41°03' W 073°55'0 0.0
2017-Sep-21 02:01N 41°03' W 073°55'0 0.0
2017-Sep-21 01:59N 41°03' W 073°55'  
Track history (hours):
 
Tides and Currents Weather Stations Pressure Air Temp Water Temp Dewpoint Dewpoint Depression Visibility Wind Speed Wind Dir Waves Ship Positions

Confluence

Last reported at 2017-Sep-21 20:41 UTC. Time now 2017-Nov-24 00:25 UTC.
Position N 40°53' W 073°57'.
Warning: this ship's position is months out of date.

Length 11 m; draft 0.9 m.

Type: Pleasure craft. MMSI: 338134108.

Date/timePositionNaut miles runAvg speedWind from/ knotsBaromVisibWave heightAir tempDewpointWater temp
2017-Sep-21 20:41N 40°53' W 073°57'0 2.6
2017-Sep-21 20:30N 40°52' W 073°57'3 5.5
2017-Sep-21 20:00N 40°50' W 073°58'3 6.7
2017-Sep-21 19:30N 40°47' W 074°00'3 5.8
2017-Sep-21 19:00N 40°44' W 074°01'510.1
2017-Sep-21 18:30N 40°39' W 074°03'2 4.6
2017-Sep-21 17:59N 40°37' W 074°04'816.0
2017-Sep-21 17:30N 40°44' W 074°01'0 0.8
2017-Sep-21 16:59N 40°44' W 074°01'2 4.8
2017-Sep-21 16:30N 40°42' W 073°59'2 4.2
2017-Sep-21 16:00N 40°44' W 073°58'0 0.7
2017-Sep-21 15:30N 40°44' W 073°58'0 0.6
2017-Sep-21 14:59N 40°44' W 073°58'4 7.3
2017-Sep-21 14:30N 40°41' W 074°00'5 9.7
2017-Sep-21 13:58N 40°37' W 074°04'2 5.1
2017-Sep-21 13:30N 40°39' W 074°03'24 2.8
2017-Sep-21 04:49N 41°03' W 073°55'0 0.0
2017-Sep-21 02:01N 41°03' W 073°55'0 0.0
2017-Sep-21 01:59N 41°03' W 073°55'  

Dump ship's entire track history